• Join FlightAware (Why Join?)
  • Login
  • US Flag 
11:40PM EDT


 

Airport Tracker/Info


-or-


 

Live Flight TrackerFlight Track Log ✈ N479B ✈ 29-Jul-2014 ✈ KLAS - KCRS

Flight Track Log - Related Links

Times and Time Zones

All times are in EDT time to prevent confusion due to time zone crossing. See the N479B flight status page for this flight to view local times or setup timezone preferences in your user account.

Time Position Orientation Groundspeed Altitude Reporting Facility
EDT Latitude Longitude Course Direction KTS MPH feet Rate Location/Type
04:23PM 36.0650 -115.1772 203° Southwest 157 181 3,000  Level Los Angeles Center
04:24PM 36.0264 -115.1978 203° Southwest 163 188 4,400 1,440 Climbing Los Angeles Center
04:25PM 36.0133 -115.2047 203° Southwest 165 190 4,800 1,260 Climbing Los Angeles Center
04:25PM 35.9803 -115.2236 205° Southwest 181 208 5,700 1,200 Climbing Los Angeles Center
04:26PM 35.9672 -115.2297 201° Southwest 177 204 6,100 1,140 Climbing Los Angeles Center
04:26PM 35.9306 -115.2133 160° South 206 237 6,900 840 Climbing Los Angeles Center
04:27PM 35.9119 -115.2011 152° Southeast 207 238 7,000 780 Climbing Los Angeles Center
04:27PM 35.8853 -115.1647 132° Southeast 237 273 7,700 1,140 Climbing Los Angeles Center
04:28PM 35.8808 -115.1361 101° East 227 261 8,200 1,440 Climbing Los Angeles Center
04:28PM 35.8711 -115.0897 104° East 225 259 9,200 1,620 Climbing Los Angeles Center
04:29PM 35.8769 -115.0572 78° East 220 253 9,900 1,620 Climbing Los Angeles Center
04:29PM 35.8872 -115.0153 73° East 208 239 10,900 1,500 Climbing Los Angeles Center
04:30PM 35.8950 -114.9900 69° East 209 241 11,500 1,380 Climbing Los Angeles Center
04:30PM 35.9039 -114.9539 73° East 209 241 12,200 1,320 Climbing Los Angeles Center
04:31PM 35.9147 -114.9158 71° East 209 241 12,900 1,260 Climbing Los Angeles Center
04:32PM 35.9314 -114.8453 74° East 210 242 14,200 1,200 Climbing Los Angeles Center
04:33PM 35.9492 -114.7747 73° East 211 243 15,500 1,020 Climbing Los Angeles Center
04:34PM 35.9642 -114.7036 75° East 212 244 16,400 840 Climbing Los Angeles Center
04:35PM 35.9803 -114.6250 76° East 228 262 17,300 840 Climbing Los Angeles Center
04:36PM 35.9728 -114.5467 97° East 230 265 18,200 960 Climbing Los Angeles Center
04:37PM 35.9589 -114.4536 100° East 230 265 19,300 960 Climbing Los Angeles Center
04:38PM 35.9519 -114.3742 96° East 230 265 20,200 840 Climbing Los Angeles Center
04:39PM 35.9464 -114.2978 95° East 230 265 21,100 840 Climbing Los Angeles Center
04:40PM 35.9408 -114.2217 95° East 227 261 22,000 720 Climbing Los Angeles Center
04:41PM 35.9344 -114.1458 96° East 227 261 22,700 600 Climbing Los Angeles Center
04:42PM 35.9264 -114.0706 98° East 226 260 23,300 600 Climbing Los Angeles Center
04:43PM 35.8803 -113.9892 125° Southeast 232 267 24,000 600 Climbing Los Angeles Center
04:44PM 35.8583 -113.9147 110° East 232 267 24,600 480 Climbing Los Angeles Center
04:45PM 35.8581 -113.8289 90° East 239 275 25,100 480 Climbing Los Angeles Center
04:46PM 35.8550 -113.7467 93° East 241 277 25,700 480 Climbing Los Angeles Center
04:47PM 35.8506 -113.6639 94° East 241 277 26,200 480 Climbing Los Angeles Center
04:48PM 35.8458 -113.5825 94° East 241 277 26,700 480 Climbing Los Angeles Center
04:49PM 35.8411 -113.5017 94° East 240 276 27,200 480 Climbing Los Angeles Center
04:50PM 35.8358 -113.4056 94° East 235 270 27,700 420 Climbing Los Angeles Center
04:51PM 35.8303 -113.3269 95° East 234 269 28,100 360 Climbing Los Angeles Center
04:52PM 35.8242 -113.2467 95° East 234 269 28,500 300 Climbing Los Angeles Center
04:53PM 35.8114 -113.1689 101° East 235 270 28,800 240 Climbing Los Angeles Center
04:55PM 35.7981 -113.0886 102° East 235 270 29,100 300 Climbing Los Angeles Center
04:56PM 35.7842 -113.0078 102° East 239 275 29,500 360 Climbing Los Angeles Center
04:57PM 35.7703 -112.9119 100° East 239 275 29,900 240 Climbing Los Angeles Center
04:58PM 35.7581 -112.8317 101° East 238 274 30,100 180 Climbing Los Angeles Center
04:59PM 35.7444 -112.7522 102° East 238 274 30,300 180 Climbing Los Angeles Center
05:00PM 35.7303 -112.6711 102° East 239 275 30,500 240 Climbing Los Angeles Center
05:01PM 35.7139 -112.5914 104° East 244 281 30,800 240 Climbing Los Angeles Center
05:02PM 35.6933 -112.4981 105° East 243 280 31,000 60 Climbing Los Angeles Center
05:03PM 35.6750 -112.4147 105° East 247 284 31,000  Level Los Angeles Center
05:04PM 35.6544 -112.3281 106° East 258 297 31,000  Level Los Angeles Center
05:05PM 35.6311 -112.2406 108° East 263 303 31,000  Level Los Angeles Center
05:06PM 35.6094 -112.1511 107° East 266 306 31,000  Level Los Angeles Center
05:07PM 35.5975 -112.0525 98° East 281 323 31,000  Level Los Angeles Center
05:08PM 35.5950 -111.9286 91° East 293 337 31,000  Level Los Angeles Center
05:09PM 35.5922 -111.8258 92° East 296 341 31,000  Level Los Angeles Center
05:10PM 35.5883 -111.7261 93° East 298 343 31,000  Level Los Angeles Center
05:11PM 35.5864 -111.6217 91° East 300 345 31,000  Level Los Angeles Center
05:12PM 35.5828 -111.5197 92° East 300 345 31,000  Level Los Angeles Center
05:13PM 35.5794 -111.3950 92° East 301 346 31,000  Level Los Angeles Center
05:14PM 35.5756 -111.2903 93° East 302 348 31,000  Level Los Angeles Center
05:16PM 35.5536 -111.1439 100° East 306 352 31,000  Level Albuquerque Center
05:17PM 35.5417 -111.0464 99° East 306 352 31,000  Level Albuquerque Center
05:18PM 35.5258 -110.9300 99° East 307 353 31,000  Level Albuquerque Center
05:19PM 35.5133 -110.8306 99° East 307 353 31,000  Level Albuquerque Center
05:20PM 35.5128 -110.7181 90° East 304 350 31,000  Level Albuquerque Center
05:21PM 35.5097 -110.6178 92° East 304 350 31,000  Level Albuquerque Center
05:22PM 35.5075 -110.4978 91° East 309 356 31,000  Level Albuquerque Center
05:23PM 35.5061 -110.3989 91° East 309 356 31,000  Level Albuquerque Center
05:24PM 35.5036 -110.2803 91° East 309 356 31,000  Level Albuquerque Center
05:25PM 35.5025 -110.1803 91° East 309 356 31,000  Level Albuquerque Center
05:26PM 35.5025 -110.0803 90° East 309 356 31,000  Level Albuquerque Center
05:27PM 35.5039 -109.9650 89° East 307 353 31,000  Level Albuquerque Center
05:28PM 35.5044 -109.8664 90° East 307 353 31,000  Level Albuquerque Center
05:29PM 35.4964 -109.7525 95° East 303 349 31,000  Level Albuquerque Center
05:30PM 35.4817 -109.6542 100° East 303 349 31,000  Level Albuquerque Center
05:31PM 35.4625 -109.5406 102° East 303 349 31,000  Level Albuquerque Center
05:32PM 35.4450 -109.4442 103° East 303 349 31,000  Level Albuquerque Center
05:33PM 35.4236 -109.3308 103° East 303 349 31,000  Level Albuquerque Center
05:34PM 35.4050 -109.2331 103° East 305 351 31,000  Level Albuquerque Center
05:35PM 35.3861 -109.1364 103° East 305 351 31,000  Level Albuquerque Center
05:36PM 35.3664 -109.0208 102° East 306 352 31,000  Level Albuquerque Center
05:37PM 35.3517 -108.9225 100° East 307 353 31,000  Level Albuquerque Center
05:38PM 35.3344 -108.8083 100° East 307 353 31,000  Level Albuquerque Center
05:39PM 35.3186 -108.7094 101° East 307 353 31,000  Level Albuquerque Center
05:40PM 35.3008 -108.5953 101° East 307 353 31,000  Level Albuquerque Center
05:41PM 35.2847 -108.4978 101° East 307 353 31,000  Level Albuquerque Center
05:42PM 35.2611 -108.3844 104° East 307 353 31,000  Level Albuquerque Center
05:43PM 35.2400 -108.2897 105° East 307 353 31,000  Level Albuquerque Center
05:44PM 35.2161 -108.1792 105° East 306 352 31,000  Level Albuquerque Center
05:45PM 35.1964 -108.0833 104° East 305 351 31,000  Level Albuquerque Center
05:47PM 35.1769 -107.9881 104° East 305 351 31,000  Level Albuquerque Center
05:48PM 35.1519 -107.8794 106° East 302 348 31,000  Level Albuquerque Center
05:49PM 35.1300 -107.7864 106° East 302 348 31,000  Level Albuquerque Center
05:50PM 35.1083 -107.6939 106° East 302 348 31,000  Level Albuquerque Center
05:51PM 35.0769 -107.5794 108° East 300 345 31,000  Level Albuquerque Center
05:52PM 35.0483 -107.4769 109° East 300 345 31,000  Level Albuquerque Center
05:53PM 35.0217 -107.3825 109° East 299 344 31,000  Level Albuquerque Center
05:54PM 34.9942 -107.2894 110° East 296 341 31,000  Level Albuquerque Center
05:55PM 34.9606 -107.1906 113° Southeast 295 339 31,000  Level Albuquerque Center
05:56PM 34.9294 -107.0997 113° Southeast 294 338 31,000  Level Albuquerque Center
05:57PM 34.8972 -107.0011 112° Southeast 294 338 31,000  Level Albuquerque Center
05:58PM 34.8653 -106.9094 113° Southeast 294 338 31,000  Level Albuquerque Center
05:59PM 34.8372 -106.8253 112° Southeast 294 338 31,000  Level Albuquerque Center
06:00PM 34.8058 -106.7317 112° Southeast 295 339 31,000  Level Albuquerque Center
06:01PM 34.7683 -106.6194 112° Southeast 297 342 31,000  Level Albuquerque Center
06:02PM 34.7358 -106.5267 113° Southeast 298 343 31,000  Level Albuquerque Center
06:03PM 34.7033 -106.4339 113° Southeast 298 343 31,000  Level Albuquerque Center
06:04PM 34.6731 -106.3422 112° Southeast 298 343 31,000  Level Albuquerque Center
06:05PM 34.6425 -106.2489 112° Southeast 297 342 31,000  Level Albuquerque Center
06:06PM 34.6064 -106.1608 116° Southeast 297 342 31,000  Level Albuquerque Center
06:07PM 34.5661 -106.0578 115° Southeast 297 342 31,000  Level Albuquerque Center
06:08PM 34.5253 -105.9731 120° Southeast 292 336 31,000  Level Albuquerque Center
06:09PM 34.4811 -105.8914 123° Southeast 292 336 31,000  Level Albuquerque Center
06:10PM 34.4342 -105.8122 126° Southeast 291 335 31,000  Level Albuquerque Center
06:11PM 34.3831 -105.7194 124° Southeast 286 329 31,000  Level Albuquerque Center
06:12PM 34.3383 -105.6367 123° Southeast 286 329 31,000  Level Albuquerque Center
06:13PM 34.2908 -105.5547 125° Southeast 289 333 31,000  Level Albuquerque Center
06:14PM 34.2464 -105.4725 123° Southeast 291 335 31,000  Level Albuquerque Center
06:15PM 34.2058 -105.3839 119° Southeast 294 338 31,000  Level Albuquerque Center
06:16PM 34.1850 -105.2872 105° East 294 338 31,000  Level Albuquerque Center
06:17PM 34.1697 -105.1914 101° East 289 333 31,000  Level Albuquerque Center
06:18PM 34.1500 -105.0800 102° East 289 333 31,000  Level Albuquerque Center
06:19PM 34.1333 -104.9842 102° East 289 333 31,000  Level Albuquerque Center
06:21PM 34.1211 -104.8886 99° East 289 333 31,000  Level Albuquerque Center
06:22PM 34.1089 -104.7919 99° East 289 333 31,000  Level Albuquerque Center
06:23PM 34.0992 -104.6928 97° East 292 336 31,000  Level Albuquerque Center
06:24PM 34.0919 -104.5950 95° East 292 336 31,000  Level Albuquerque Center
06:25PM 34.0856 -104.4956 94° East 293 337 31,000  Level Albuquerque Center
06:26PM 34.0775 -104.3817 95° East 292 336 31,000  Level Albuquerque Center
06:27PM 34.0639 -104.2819 99° East 294 338 31,000  Level Albuquerque Center
06:28PM 34.0511 -104.1847 99° East 295 339 31,000  Level Albuquerque Center
06:29PM 34.0364 -104.0861 100° East 295 339 31,000  Level Albuquerque Center
06:30PM 34.0225 -103.9861 99° East 296 341 31,000  Level Albuquerque Center
06:31PM 34.0097 -103.8875 99° East 296 341 31,000  Level Albuquerque Center
06:32PM 33.9961 -103.7889 99° East 296 341 31,000  Level Albuquerque Center
06:33PM 33.9828 -103.6844 99° East 296 341 31,000  Level Albuquerque Center
06:34PM 33.9675 -103.5750 100° East 296 341 31,000  Level Albuquerque Center
06:35PM 33.9531 -103.4783 100° East 296 341 31,000  Level Albuquerque Center
06:36PM 33.9392 -103.3822 100° East 295 339 31,000  Level Albuquerque Center
06:37PM 33.9278 -103.2983 99° East 294 338 31,000  Level Albuquerque Center
06:38PM 33.9122 -103.1814 99° East 294 338 31,000  Level Albuquerque Center
06:39PM 33.8986 -103.0853 100° East 294 338 31,000  Level Albuquerque Center
06:40PM 33.8817 -102.9917 102° East 293 337 31,000  Level Albuquerque Center
06:41PM 33.8689 -102.8956 99° East 293 337 31,000  Level Albuquerque Center
06:42PM 33.8542 -102.7972 100° East 293 337 31,000  Level Albuquerque Center
06:43PM 33.8406 -102.7000 100° East 294 338 31,000  Level Albuquerque Center
06:44PM 33.8233 -102.5836 100° East 294 338 31,000  Level Albuquerque Center
06:46PM 33.8028 -102.4464 100° East 297 342 31,000  Level Fort Worth Center
06:47PM 33.7892 -102.3536 100° East 285 328 31,000  Level Fort Worth Center
06:48PM 33.7758 -102.2647 100° East 277 319 31,000  Level Fort Worth Center
06:49PM 33.7583 -102.1561 101° East 276 318 31,000  Level Fort Worth Center
06:50PM 33.7447 -102.0633 100° East 281 323 31,000  Level Fort Worth Center
06:51PM 33.7308 -101.9689 100° East 285 328 31,000  Level Fort Worth Center
06:52PM 33.7158 -101.8756 101° East 285 328 31,000  Level Fort Worth Center
06:53PM 33.7017 -101.7831 100° East 285 328 31,000  Level Fort Worth Center
06:54PM 33.6867 -101.6883 101° East 287 330 31,000  Level Fort Worth Center
06:55PM 33.6689 -101.5744 101° East 287 330 31,000  Level Fort Worth Center
06:56PM 33.6533 -101.4811 101° East 288 331 31,000  Level Fort Worth Center
06:57PM 33.6400 -101.3867 100° East 287 330 31,000  Level Fort Worth Center
06:58PM 33.6211 -101.2789 102° East 287 330 31,000  Level Fort Worth Center
06:59PM 33.6056 -101.1847 101° East 288 331 31,000  Level Fort Worth Center
07:00PM 33.5914 -101.0889 100° East 288 331 31,000  Level Fort Worth Center
07:01PM 33.5756 -100.9947 101° East 288 331 31,000  Level Fort Worth Center
07:02PM 33.5606 -100.8986 101° East 289 333 31,000  Level Fort Worth Center
07:03PM 33.5442 -100.8036 102° East 290 334 31,000  Level Fort Worth Center
07:04PM 33.5239 -100.6892 102° East 290 334 31,000  Level Fort Worth Center
07:05PM 33.5083 -100.5914 101° East 293 337 31,000  Level Fort Worth Center
07:07PM 33.4911 -100.4972 102° East 293 337 31,000  Level Fort Worth Center
07:08PM 33.4725 -100.4028 103° East 292 336 31,000  Level Fort Worth Center
07:09PM 33.4536 -100.3058 103° East 293 337 31,000  Level Fort Worth Center
07:10PM 33.4356 -100.2086 103° East 294 338 31,000  Level Fort Worth Center
07:11PM 33.4164 -100.0911 101° East 295 339 31,000  Level Fort Worth Center
07:12PM 33.4025 -99.9969 100° East 292 336 31,000  Level Fort Worth Center
07:13PM 33.3919 -99.8983 97° East 293 337 31,000 -120 Level Fort Worth Center
07:14PM 33.3803 -99.8000 98° East 294 338 30,800 -360 Descending Fort Worth Center
07:15PM 33.3619 -99.6972 102° East 308 354 30,300 -540 Descending Fort Worth Center
07:16PM 33.3300 -99.5969 111° Southeast 316 364 29,800 -540 Descending Fort Worth Center
07:17PM 33.2906 -99.4986 116° Southeast 322 371 29,200 -660 Descending Fort Worth Center
07:18PM 33.2436 -99.3789 115° Southeast 327 376 28,500 -660 Descending Fort Worth Center
07:19PM 33.2031 -99.2775 116° Southeast 332 382 27,900 -600 Descending Fort Worth Center
07:20PM 33.1639 -99.1769 115° Southeast 334 384 27,300 -480 Descending Fort Worth Center
07:21PM 33.1258 -99.0794 115° Southeast 330 380 27,000 -180 Descending Fort Worth Center
07:22PM 33.0883 -98.9861 116° Southeast 317 365 27,000  Level Fort Worth Center
07:23PM 33.0536 -98.8969 115° Southeast 303 349 27,000  Level Fort Worth Center
07:24PM 33.0128 -98.7906 115° Southeast 296 341 27,000  Level Fort Worth Center
07:25PM 32.9772 -98.7025 116° Southeast 294 338 27,000  Level Fort Worth Center
07:26PM 32.9417 -98.6133 115° Southeast 297 342 27,000  Level Fort Worth Center
07:27PM 32.9058 -98.5244 116° Southeast 298 343 27,000  Level Fort Worth Center
07:28PM 32.8667 -98.4292 116° Southeast 298 343 27,000  Level Fort Worth Center
07:29PM 32.8306 -98.3403 116° Southeast 298 343 27,000  Level Fort Worth Center
07:30PM 32.7953 -98.2511 115° Southeast 299 344 27,000  Level Fort Worth Center
07:31PM 32.7592 -98.1631 116° Southeast 299 344 27,000 -240 Level Fort Worth Center
07:32PM 32.7167 -98.0569 115° Southeast 298 343 26,600 -840 Descending Fort Worth Center
07:33PM 32.6775 -97.9606 116° Southeast 322 371 25,300 -1,380 Descending Fort Worth Center
07:34PM 32.6358 -97.8600 116° Southeast 336 387 23,800 -1,500 Descending Fort Worth Center
07:36PM 32.5922 -97.7533 116° Southeast 329 379 22,200 -1,500 Descending Fort Worth Center
07:37PM 32.5550 -97.6617 116° Southeast 314 361 20,700 -1,500 Descending Fort Worth Center
07:38PM 32.5158 -97.5647 116° Southeast 305 351 19,100 -840 Descending Fort Worth Center
07:39PM 32.4786 -97.4750 116° Southeast 306 352 19,000 -60 Descending Fort Worth Center
07:40PM 32.4414 -97.3836 116° Southeast 291 335 19,000  Level Fort Worth Center
07:41PM 32.4081 -97.3017 116° Southeast 281 323 19,000 -360 Level Fort Worth Center
07:42PM 32.3703 -97.2150 117° Southeast 278 320 18,300 -540 Descending Fort Worth Center
07:43PM 32.3331 -97.1256 116° Southeast 301 346 18,000 -960 Descending Fort Worth Center
07:44PM 32.2944 -97.0317 116° Southeast 298 343 16,400 -1,800 Descending Fort Worth Center
07:45PM 32.2550 -96.9372 116° Southeast 316 364 14,400 -1,980 Descending Fort Worth Center
07:46PM 32.2158 -96.8450 117° Southeast 325 374 12,400 -2,100 Descending Fort Worth Center
07:47PM 32.1772 -96.7503 116° Southeast 325 374 10,100 -2,220 Descending Fort Worth Center